createdAt,value
2022-10-31T00:00:32.356Z,5.18
2022-10-31T00:02:59.079Z,4.05
2022-10-31T00:05:25.725Z,4.00
2022-10-31T00:07:55.332Z,4.10
2022-10-31T00:10:21.804Z,4.50
2022-10-31T00:12:48.297Z,3.63
2022-10-31T00:15:14.792Z,3.83
2022-10-31T00:17:41.212Z,4.28
2022-10-31T00:20:08.136Z,4.03
2022-10-31T00:22:34.538Z,4.15
2022-10-31T00:25:01.003Z,3.75
2022-10-31T00:27:27.442Z,3.53
2022-10-31T00:29:53.823Z,3.97
2022-10-31T00:32:20.237Z,4.18
2022-10-31T00:34:46.674Z,4.25
2022-10-31T00:37:13.118Z,3.70
2022-10-31T00:39:39.531Z,3.80
2022-10-31T00:42:05.966Z,4.05
2022-10-31T00:44:32.380Z,3.60
2022-10-31T00:46:58.801Z,3.80
2022-10-31T00:49:25.238Z,3.40
2022-10-31T00:51:51.681Z,3.58
2022-10-31T00:54:18.163Z,3.83
2022-10-31T00:56:44.662Z,3.92
2022-10-31T00:59:11.078Z,3.88
2022-10-31T01:01:37.646Z,3.30
2022-10-31T01:04:04.340Z,3.65
2022-10-31T01:06:30.760Z,3.70
2022-10-31T01:08:57.179Z,4.03
2022-10-31T01:11:24.522Z,3.50
2022-10-31T01:13:53.061Z,4.03
2022-10-31T01:16:21.541Z,3.28
2022-10-31T01:18:48.014Z,3.60
2022-10-31T01:21:17.489Z,3.63
2022-10-31T01:23:44.516Z,3.47
2022-10-31T01:26:14.455Z,3.40
2022-10-31T01:28:54.969Z,3.63
2022-10-31T01:31:23.222Z,3.30
2022-10-31T01:33:49.631Z,3.80
2022-10-31T01:36:33.889Z,3.65
2022-10-31T01:39:03.342Z,3.55
2022-10-31T01:41:31.822Z,3.63
2022-10-31T01:43:59.661Z,4.07
2022-10-31T01:46:34.896Z,3.67
2022-10-31T01:49:03.721Z,4.00
2022-10-31T01:51:34.112Z,3.60
2022-10-31T01:54:03.228Z,3.67
2022-10-31T01:56:29.653Z,4.38
2022-10-31T01:58:57.491Z,4.00
2022-10-31T02:01:24.115Z,3.97
2022-10-31T02:03:50.674Z,3.85
2022-10-31T02:06:27.774Z,4.15
2022-10-31T02:08:54.607Z,3.85
2022-10-31T02:11:21.067Z,3.83
2022-10-31T02:13:48.249Z,3.85
2022-10-31T02:16:14.727Z,4.18
2022-10-31T02:18:41.243Z,4.00
2022-10-31T02:21:19.838Z,3.33
2022-10-31T02:24:11.591Z,4.07
2022-10-31T02:26:52.609Z,4.03
2022-10-31T02:29:51.605Z,3.55
2022-10-31T02:32:35.653Z,4.00
2022-10-31T02:35:13.315Z,4.35
2022-10-31T02:37:50.645Z,4.35
2022-10-31T02:40:20.810Z,3.85
2022-10-31T02:43:04.655Z,3.88
2022-10-31T02:45:53.996Z,3.22
2022-10-31T02:48:23.426Z,3.95
2022-10-31T02:51:01.532Z,4.28
2022-10-31T02:53:33.098Z,3.72
2022-10-31T02:56:02.683Z,3.50
2022-10-31T02:58:33.089Z,3.90
2022-10-31T03:01:18.443Z,3.83
2022-10-31T03:04:17.225Z,3.90
2022-10-31T03:07:02.159Z,3.75
2022-10-31T03:10:01.172Z,3.55
2022-10-31T03:12:31.152Z,3.65
2022-10-31T03:15:12.697Z,3.80
2022-10-31T03:17:46.172Z,3.75
2022-10-31T03:20:12.591Z,4.25
2022-10-31T03:22:40.749Z,3.58
2022-10-31T03:25:08.449Z,3.67
2022-10-31T03:27:36.479Z,3.88
2022-10-31T03:30:04.944Z,3.88
2022-10-31T03:32:42.932Z,4.30
2022-10-31T03:35:09.775Z,4.28
2022-10-31T03:37:37.601Z,3.42
2022-10-31T03:40:05.352Z,4.10
2022-10-31T03:42:34.380Z,4.15
2022-10-31T03:45:07.546Z,3.50
2022-10-31T03:47:35.400Z,4.00
2022-10-31T03:50:01.910Z,4.22
2022-10-31T03:52:49.991Z,4.45
2022-10-31T03:55:20.371Z,4.35
2022-10-31T03:58:04.138Z,3.83
2022-10-31T04:00:32.705Z,4.10
2022-10-31T04:03:07.561Z,4.18
2022-10-31T04:05:34.553Z,3.95
2022-10-31T04:08:02.119Z,3.50
2022-10-31T04:10:32.898Z,3.80
2022-10-31T04:13:06.720Z,4.25
2022-10-31T04:15:34.053Z,4.28
2022-10-31T04:18:01.983Z,4.13
2022-10-31T04:20:34.572Z,4.40
2022-10-31T04:23:02.102Z,4.32
2022-10-31T04:25:28.612Z,4.32
2022-10-31T04:27:55.334Z,5.03
2022-10-31T04:30:21.945Z,4.47
2022-10-31T04:32:48.402Z,4.97
2022-10-31T04:35:14.863Z,4.55
2022-10-31T04:37:41.276Z,4.63
2022-10-31T04:40:08.228Z,5.15
2022-10-31T04:42:34.658Z,5.13
2022-10-31T04:45:01.061Z,5.00
2022-10-31T04:47:27.477Z,5.72
2022-10-31T04:49:53.943Z,5.90
2022-10-31T04:52:20.361Z,5.13
2022-10-31T04:54:46.749Z,5.10
2022-10-31T04:57:13.154Z,5.35
2022-10-31T04:59:39.568Z,5.75
2022-10-31T05:02:06.114Z,6.10
2022-10-31T05:04:32.634Z,5.70
2022-10-31T05:06:59.042Z,5.88
2022-10-31T05:09:25.463Z,5.93
2022-10-31T05:11:51.905Z,6.65
2022-10-31T05:14:18.329Z,7.68
2022-10-31T05:16:44.752Z,7.05
2022-10-31T05:19:11.182Z,8.77
2022-10-31T05:21:37.583Z,11.45
2022-10-31T05:24:04.353Z,11.50
2022-10-31T05:26:30.746Z,10.40
2022-10-31T05:28:57.176Z,11.32
2022-10-31T05:31:23.645Z,11.43
2022-10-31T05:33:50.073Z,10.55
2022-10-31T05:36:16.455Z,11.73
2022-10-31T05:38:42.883Z,10.77
2022-10-31T05:41:10.263Z,10.57
2022-10-31T05:43:36.734Z,10.85
2022-10-31T05:46:03.150Z,10.65
2022-10-31T05:48:29.611Z,10.23
2022-10-31T05:50:56.036Z,10.80
2022-10-31T05:53:22.433Z,11.32
2022-10-31T05:55:48.832Z,10.77
2022-10-31T05:58:15.358Z,11.77
2022-10-31T06:00:42.748Z,12.13
2022-10-31T06:05:41.398Z,13.02
2022-10-31T06:08:07.804Z,14.18
2022-10-31T06:10:34.438Z,12.95
2022-10-31T06:13:00.888Z,13.25
2022-10-31T06:15:27.339Z,12.30
2022-10-31T06:18:04.751Z,12.82
2022-10-31T06:20:31.714Z,14.48
2022-10-31T06:22:58.524Z,13.13
2022-10-31T06:25:25.183Z,12.15
2022-10-31T06:27:51.589Z,14.15
2022-10-31T06:30:18.167Z,14.15
2022-10-31T06:32:44.599Z,16.25
2022-10-31T06:35:11.187Z,15.52
2022-10-31T06:37:38.307Z,15.40
2022-10-31T06:40:05.172Z,16.15
2022-10-31T06:42:31.584Z,17.33
2022-10-31T06:44:57.992Z,17.83
2022-10-31T06:47:24.618Z,17.67
2022-10-31T06:49:54.645Z,20.90
2022-10-31T06:52:21.079Z,21.45
2022-10-31T06:54:47.578Z,23.63
2022-10-31T06:57:13.995Z,24.23
2022-10-31T06:59:40.430Z,23.27
2022-10-31T07:02:10.076Z,23.90
2022-10-31T07:04:36.606Z,28.45
2022-10-31T07:07:03.191Z,26.58
2022-10-31T07:09:29.616Z,27.70
2022-10-31T07:11:56.024Z,29.75
2022-10-31T07:14:22.465Z,27.98
2022-10-31T07:16:50.909Z,29.73
2022-10-31T07:19:17.933Z,28.15
2022-10-31T07:21:44.370Z,28.85
2022-10-31T07:24:11.790Z,29.10
2022-10-31T07:26:38.243Z,28.13
2022-10-31T07:29:04.734Z,27.38
2022-10-31T07:31:31.124Z,29.17
2022-10-31T07:33:57.567Z,27.35
2022-10-31T07:36:23.961Z,27.67
2022-10-31T07:38:50.879Z,29.52
2022-10-31T07:41:17.276Z,29.08
2022-10-31T07:43:43.723Z,27.98
2022-10-31T07:46:10.260Z,26.77
2022-10-31T07:48:36.703Z,27.02
2022-10-31T07:51:03.180Z,29.10
2022-10-31T07:53:29.607Z,27.77
2022-10-31T07:55:56.033Z,29.63
2022-10-31T07:58:22.497Z,28.90
2022-10-31T08:00:49.191Z,26.83
2022-10-31T08:03:17.811Z,28.52
2022-10-31T08:05:46.726Z,27.42
2022-10-31T08:08:14.327Z,28.38
2022-10-31T08:10:41.569Z,28.88
2022-10-31T08:13:10.557Z,27.70
2022-10-31T08:15:39.174Z,26.98
2022-10-31T08:18:06.714Z,27.63
2022-10-31T08:20:33.234Z,26.20
2022-10-31T08:23:01.704Z,28.60
2022-10-31T08:25:32.417Z,27.02
2022-10-31T08:28:02.637Z,28.67
2022-10-31T08:30:31.595Z,28.20
2022-10-31T08:33:13.902Z,28.27
2022-10-31T08:35:40.938Z,27.05
2022-10-31T08:38:08.675Z,29.02
2022-10-31T08:40:36.164Z,31.40
2022-10-31T08:43:04.824Z,29.27
2022-10-31T08:45:32.505Z,28.63
2022-10-31T08:48:04.207Z,29.08
2022-10-31T08:50:32.125Z,28.55
2022-10-31T08:53:12.641Z,27.13
2022-10-31T08:55:40.034Z,27.77
2022-10-31T08:58:10.691Z,27.58
2022-10-31T09:00:37.643Z,29.52
2022-10-31T09:03:06.504Z,28.67
2022-10-31T09:05:33.709Z,29.95
2022-10-31T09:08:02.442Z,28.98
2022-10-31T09:10:29.992Z,27.77
2022-10-31T09:13:09.039Z,28.98
2022-10-31T09:15:37.015Z,26.95
2022-10-31T09:18:04.004Z,26.70
2022-10-31T09:20:32.053Z,27.65
2022-10-31T09:22:59.950Z,26.08
2022-10-31T09:25:27.194Z,25.65
2022-10-31T09:28:00.517Z,26.17
2022-10-31T09:30:30.205Z,27.08
2022-10-31T09:33:01.758Z,27.20
2022-10-31T09:35:29.025Z,26.52
2022-10-31T09:37:56.428Z,24.13
2022-10-31T09:40:24.335Z,25.38
2022-10-31T09:43:15.684Z,26.25
2022-10-31T09:45:49.082Z,26.70
2022-10-31T09:48:33.909Z,26.02
2022-10-31T09:51:13.235Z,26.85
2022-10-31T09:53:43.701Z,26.67
2022-10-31T09:56:13.965Z,25.55
2022-10-31T09:58:46.304Z,25.80
2022-10-31T10:01:34.534Z,30.05
2022-10-31T10:04:40.346Z,28.08
2022-10-31T10:07:31.541Z,26.75
2022-10-31T10:09:59.175Z,26.83
2022-10-31T10:12:40.993Z,26.90
2022-10-31T10:15:22.101Z,28.08
2022-10-31T10:17:55.980Z,26.85
2022-10-31T10:20:35.390Z,26.10
2022-10-31T10:23:27.873Z,26.83
2022-10-31T10:26:08.750Z,26.35
2022-10-31T10:28:40.903Z,28.52
2022-10-31T10:31:18.412Z,26.58
2022-10-31T10:34:12.619Z,27.17
2022-10-31T10:36:46.152Z,28.20
2022-10-31T10:39:24.169Z,27.75
2022-10-31T10:42:10.728Z,29.75
2022-10-31T10:45:03.637Z,28.25
2022-10-31T10:47:44.199Z,26.90
2022-10-31T10:50:16.520Z,26.58
2022-10-31T10:53:00.656Z,28.52
2022-10-31T10:55:40.589Z,27.90
2022-10-31T10:58:09.083Z,27.20
2022-10-31T11:00:39.300Z,26.85
2022-10-31T11:03:06.608Z,24.92
2022-10-31T11:05:46.035Z,24.73
2022-10-31T11:08:13.050Z,24.15
2022-10-31T11:10:39.668Z,25.00
2022-10-31T11:13:06.128Z,24.42
2022-10-31T11:15:38.077Z,27.73
2022-10-31T11:18:05.331Z,27.48
2022-10-31T11:20:37.157Z,28.85
2022-10-31T11:23:24.420Z,28.00
2022-10-31T11:26:00.850Z,26.52
2022-10-31T11:28:30.300Z,25.33
2022-10-31T11:31:00.237Z,25.13
2022-10-31T11:33:46.260Z,25.20
2022-10-31T11:36:33.506Z,26.30
2022-10-31T11:39:01.082Z,25.08
2022-10-31T11:41:40.653Z,27.38
2022-10-31T11:44:17.516Z,27.52
2022-10-31T11:46:46.863Z,25.63
2022-10-31T11:49:43.037Z,25.08
2022-10-31T11:52:15.417Z,25.58
2022-10-31T11:54:55.912Z,26.00
2022-10-31T11:57:30.698Z,25.58
2022-10-31T11:59:59.691Z,25.17
2022-10-31T12:02:27.299Z,24.50
2022-10-31T12:05:02.436Z,23.88
2022-10-31T12:07:29.021Z,24.15
2022-10-31T12:09:55.553Z,24.65
2022-10-31T12:12:24.982Z,22.98
2022-10-31T12:14:57.210Z,23.85
2022-10-31T12:17:42.583Z,22.00
2022-10-31T12:20:30.296Z,23.52
2022-10-31T12:23:05.913Z,24.13
2022-10-31T12:25:42.969Z,25.40
2022-10-31T12:28:32.657Z,25.02
2022-10-31T12:31:08.194Z,24.92
2022-10-31T12:33:42.313Z,26.15
2022-10-31T12:36:17.904Z,25.45
2022-10-31T12:38:50.285Z,24.60
2022-10-31T12:41:22.744Z,25.55
2022-10-31T12:44:01.655Z,25.40
2022-10-31T12:46:54.656Z,25.60
2022-10-31T12:49:29.005Z,23.45
2022-10-31T12:52:10.495Z,25.35
2022-10-31T12:54:49.190Z,23.83
2022-10-31T12:57:18.809Z,23.38
2022-10-31T13:00:06.025Z,23.13
2022-10-31T13:02:47.293Z,25.02
2022-10-31T13:05:32.509Z,23.60
2022-10-31T13:08:04.024Z,23.98
2022-10-31T13:10:34.051Z,23.95
2022-10-31T13:13:07.971Z,25.38
2022-10-31T13:15:40.031Z,24.88
2022-10-31T13:18:12.866Z,25.27
2022-10-31T13:20:43.334Z,25.88
2022-10-31T13:26:41.998Z,24.75
2022-10-31T13:29:31.789Z,25.70
2022-10-31T13:32:00.678Z,24.90
2022-10-31T13:34:28.509Z,24.75
2022-10-31T13:37:16.418Z,25.52
2022-10-31T13:40:21.198Z,25.50
2022-10-31T13:43:08.160Z,26.20
2022-10-31T13:45:34.604Z,27.02
2022-10-31T13:48:16.416Z,27.00
2022-10-31T13:50:44.293Z,26.45
2022-10-31T13:53:20.265Z,29.05
2022-10-31T13:55:49.456Z,27.83
2022-10-31T13:58:25.293Z,28.55
2022-10-31T14:01:16.563Z,26.50
2022-10-31T14:06:37.888Z,25.08
2022-10-31T14:09:04.836Z,25.85
2022-10-31T14:11:34.592Z,25.77
2022-10-31T14:14:03.941Z,25.08
2022-10-31T14:16:31.832Z,27.00
2022-10-31T14:19:07.568Z,27.33
2022-10-31T14:21:42.935Z,28.67
2022-10-31T14:24:26.125Z,27.65
2022-10-31T14:27:03.914Z,25.98
2022-10-31T14:29:34.958Z,27.13
2022-10-31T14:32:11.745Z,26.38
2022-10-31T14:34:41.876Z,27.15
2022-10-31T14:37:39.623Z,25.10
2022-10-31T14:40:14.999Z,25.30
2022-10-31T14:42:46.448Z,24.45
2022-10-31T14:45:40.368Z,26.30
2022-10-31T14:48:31.722Z,26.42
2022-10-31T14:50:59.501Z,25.77
2022-10-31T14:53:28.601Z,28.25
2022-10-31T14:55:56.781Z,28.00
2022-10-31T14:58:43.713Z,28.23
2022-10-31T15:01:22.327Z,26.77
2022-10-31T15:04:17.610Z,25.83
2022-10-31T15:06:43.388Z,23.38
2022-10-31T15:09:27.439Z,22.25
2022-10-31T15:11:53.893Z,24.23
2022-10-31T15:14:32.817Z,24.48
2022-10-31T15:17:00.329Z,24.98
2022-10-31T15:19:28.788Z,24.33
2022-10-31T15:21:56.834Z,25.48
2022-10-31T15:24:25.896Z,24.92
2022-10-31T15:26:53.727Z,23.70
2022-10-31T15:29:24.735Z,24.02
2022-10-31T15:31:52.030Z,23.77
2022-10-31T15:34:25.870Z,22.45
2022-10-31T15:36:52.371Z,24.48
2022-10-31T15:39:19.474Z,24.67
2022-10-31T15:41:57.337Z,25.55
2022-10-31T15:44:34.104Z,25.75
2022-10-31T15:47:06.200Z,24.42
2022-10-31T15:49:39.567Z,24.98
2022-10-31T15:52:21.648Z,24.55
2022-10-31T15:54:51.407Z,25.65
2022-10-31T15:57:18.061Z,26.95
2022-10-31T15:59:47.632Z,25.08
2022-10-31T16:02:15.845Z,27.15
2022-10-31T16:04:54.185Z,26.58
2022-10-31T16:07:23.562Z,26.45
2022-10-31T16:10:00.945Z,25.50
2022-10-31T16:12:34.817Z,30.83
2022-10-31T16:15:01.606Z,32.25
2022-10-31T16:17:28.879Z,40.85
2022-10-31T16:19:58.570Z,28.38
2022-10-31T16:22:30.164Z,26.73
2022-10-31T16:25:01.107Z,25.27
2022-10-31T16:27:30.133Z,26.77
2022-10-31T16:29:58.115Z,26.52
2022-10-31T16:32:53.062Z,26.40
2022-10-31T16:35:34.817Z,26.00
2022-10-31T16:38:01.260Z,27.42
2022-10-31T16:40:27.716Z,27.52
2022-10-31T16:42:54.293Z,27.63
2022-10-31T16:45:22.990Z,27.30
2022-10-31T16:47:50.353Z,25.65
2022-10-31T16:50:20.961Z,25.92
2022-10-31T16:55:37.220Z,26.25
2022-10-31T16:58:04.094Z,29.20
2022-10-31T17:00:31.602Z,26.38
2022-10-31T17:02:58.014Z,27.35
2022-10-31T17:05:30.167Z,29.98
2022-10-31T17:07:57.844Z,27.73
2022-10-31T17:10:25.039Z,27.65
2022-10-31T17:12:52.190Z,28.27
2022-10-31T17:15:23.394Z,28.95
2022-10-31T17:17:49.859Z,27.05
2022-10-31T17:20:20.209Z,26.33
2022-10-31T17:22:46.647Z,24.75
2022-10-31T17:25:18.329Z,27.08
2022-10-31T17:27:47.346Z,26.38
2022-10-31T17:30:14.385Z,28.65
2022-10-31T17:32:41.819Z,26.33
2022-10-31T17:35:10.485Z,26.92
2022-10-31T17:37:37.085Z,27.42
2022-10-31T17:40:03.700Z,26.50
2022-10-31T17:42:30.097Z,28.15
2022-10-31T17:44:56.499Z,27.88
2022-10-31T17:47:23.216Z,27.38
2022-10-31T17:49:49.620Z,26.85
2022-10-31T17:52:16.050Z,26.67
2022-10-31T17:54:42.458Z,27.52
2022-10-31T17:57:08.896Z,27.52
2022-10-31T17:59:35.323Z,27.00
2022-10-31T18:02:02.971Z,28.08
2022-10-31T18:04:29.602Z,26.67
2022-10-31T18:06:56.057Z,27.02
2022-10-31T18:09:22.490Z,26.90
2022-10-31T18:11:48.900Z,25.90
2022-10-31T18:14:15.291Z,26.90
2022-10-31T18:16:41.710Z,25.15
2022-10-31T18:19:08.201Z,26.52
2022-10-31T18:21:34.625Z,25.80
2022-10-31T18:24:02.899Z,26.55
2022-10-31T18:26:29.315Z,26.25
2022-10-31T18:28:55.738Z,26.13
2022-10-31T18:31:22.181Z,25.08
2022-10-31T18:33:48.664Z,27.95
2022-10-31T18:36:15.099Z,25.60
2022-10-31T18:38:44.783Z,27.33
2022-10-31T18:41:12.305Z,26.92
2022-10-31T18:43:38.689Z,26.48
2022-10-31T18:46:10.382Z,25.25
2022-10-31T18:48:37.515Z,26.50
2022-10-31T18:53:36.626Z,26.98
2022-10-31T18:56:10.402Z,28.00
2022-10-31T18:58:38.186Z,28.35
2022-10-31T19:01:09.669Z,30.60
2022-10-31T19:03:36.442Z,28.50
2022-10-31T19:06:03.149Z,26.33
2022-10-31T19:08:29.972Z,30.00
2022-10-31T19:10:56.537Z,28.00
2022-10-31T19:13:22.940Z,26.75
2022-10-31T19:15:49.343Z,27.80
2022-10-31T19:18:15.756Z,26.42
2022-10-31T19:20:42.163Z,26.55
2022-10-31T19:23:08.610Z,28.80
2022-10-31T19:25:35.136Z,27.13
2022-10-31T19:28:01.922Z,25.77
2022-10-31T19:30:28.627Z,24.80
2022-10-31T19:32:55.888Z,26.50
2022-10-31T19:35:22.292Z,26.73
2022-10-31T19:37:48.716Z,24.83
2022-10-31T19:40:15.488Z,26.00
2022-10-31T19:42:41.905Z,26.65
2022-10-31T19:45:08.600Z,26.65
2022-10-31T19:47:35.000Z,25.77
2022-10-31T19:50:01.594Z,26.38
2022-10-31T19:52:28.040Z,25.63
2022-10-31T19:54:54.461Z,27.20
2022-10-31T19:57:35.811Z,26.77
2022-10-31T20:00:07.831Z,26.88
2022-10-31T20:02:34.331Z,25.80
2022-10-31T20:05:01.818Z,24.88
2022-10-31T20:07:28.230Z,25.60
2022-10-31T20:09:54.721Z,25.17
2022-10-31T20:12:21.471Z,25.58
2022-10-31T20:14:49.470Z,24.33
2022-10-31T20:17:15.926Z,24.30
2022-10-31T20:19:42.397Z,24.42
2022-10-31T20:22:08.834Z,24.25
2022-10-31T20:24:35.808Z,22.38
2022-10-31T20:27:03.222Z,23.58
2022-10-31T20:29:29.657Z,23.95
2022-10-31T20:31:57.108Z,24.10
2022-10-31T20:34:23.501Z,23.05
2022-10-31T20:36:49.931Z,22.75
2022-10-31T20:39:16.358Z,22.45
2022-10-31T20:41:42.780Z,21.95
2022-10-31T20:44:09.285Z,23.63
2022-10-31T20:46:35.689Z,23.15
2022-10-31T20:49:02.158Z,25.10
2022-10-31T20:51:28.896Z,23.95
2022-10-31T20:53:56.613Z,27.33
2022-10-31T20:56:25.039Z,24.90
2022-10-31T20:58:51.524Z,24.42
2022-10-31T21:01:20.487Z,25.00
2022-10-31T21:03:47.641Z,24.23
2022-10-31T21:06:14.920Z,23.80
2022-10-31T21:08:42.718Z,23.58
2022-10-31T21:11:16.076Z,23.05
2022-10-31T21:13:43.828Z,24.95
2022-10-31T21:16:12.979Z,24.67
2022-10-31T21:18:40.776Z,23.75
2022-10-31T21:21:12.289Z,21.92
2022-10-31T21:23:38.921Z,23.05
2022-10-31T21:26:20.963Z,23.20
2022-10-31T21:28:48.425Z,24.90
2022-10-31T21:31:17.047Z,23.95
2022-10-31T21:33:44.281Z,24.85
2022-10-31T21:36:10.887Z,24.35
2022-10-31T21:38:37.600Z,22.75
2022-10-31T21:41:12.013Z,24.48
2022-10-31T21:43:40.085Z,24.15
2022-10-31T21:46:17.404Z,23.80
2022-10-31T21:48:44.567Z,24.00
2022-10-31T21:51:12.606Z,24.02
2022-10-31T21:53:58.171Z,24.52
2022-10-31T21:56:25.038Z,24.25
2022-10-31T21:58:52.254Z,22.88
2022-10-31T22:01:19.100Z,24.73
2022-10-31T22:03:45.612Z,23.80
2022-10-31T22:06:12.754Z,23.10
2022-10-31T22:08:40.583Z,23.67
2022-10-31T22:11:09.573Z,23.90
2022-10-31T22:13:36.890Z,23.48
2022-10-31T22:16:04.865Z,21.85
2022-10-31T22:18:31.508Z,22.73
2022-10-31T22:21:06.044Z,23.23
2022-10-31T22:23:32.956Z,23.13
2022-10-31T22:26:07.178Z,24.05
2022-10-31T22:28:34.147Z,23.73
2022-10-31T22:31:07.799Z,23.05
2022-10-31T22:33:34.580Z,23.42
2022-10-31T22:36:05.608Z,22.83
2022-10-31T22:38:39.774Z,21.00
2022-10-31T22:41:17.332Z,22.98
2022-10-31T22:43:43.815Z,21.48
2022-10-31T22:46:24.396Z,22.20
2022-10-31T22:48:53.140Z,22.40
2022-10-31T22:51:30.829Z,21.55
2022-10-31T22:53:57.429Z,22.48
2022-10-31T22:56:26.184Z,22.65
2022-10-31T22:58:52.807Z,22.23
2022-10-31T23:01:21.742Z,22.13
2022-10-31T23:03:48.503Z,22.48
2022-10-31T23:06:17.126Z,21.73
2022-10-31T23:08:43.765Z,21.70
2022-10-31T23:11:32.350Z,23.65
2022-10-31T23:14:15.685Z,21.92
2022-10-31T23:16:47.018Z,22.40
2022-10-31T23:19:18.108Z,22.73
2022-10-31T23:21:57.014Z,21.45
2022-10-31T23:24:39.313Z,21.92
2022-10-31T23:27:14.354Z,23.00
2022-10-31T23:29:47.680Z,21.52
2022-10-31T23:32:22.788Z,22.00
2022-10-31T23:34:50.502Z,22.08
2022-10-31T23:37:18.149Z,22.40
2022-10-31T23:39:44.760Z,21.67
2022-10-31T23:42:11.295Z,23.13
2022-10-31T23:44:37.831Z,23.17
2022-10-31T23:47:04.962Z,23.35
2022-10-31T23:49:31.522Z,22.92
2022-10-31T23:51:58.051Z,25.33
2022-10-31T23:54:25.414Z,23.15
2022-10-31T23:56:52.313Z,22.67
2022-10-31T23:59:18.828Z,23.52
